Time;durP1;ratioP1;P1;durP2;ratioP2;P2;SDS_P1;SDS_P2;PMS_P1;PMS_P2;Temp;Humidity;BMP_temperature;BMP_pressure;BME280_temperature;BME280_humidity;BME280_pressure;Samples;Min_cycle;Max_cycle;Signal;HPM_P1;HPM_P2
2022/05/27 00:02:23;;;;;;;2.33;1.90;;;18.10;93.60;;;;;;6107850;23;20476;-88
2022/05/27 00:04:50;;;;;;;5.03;1.50;;;18.10;93.70;;;;;;6111851;23;20420;-87
2022/05/27 00:07:17;;;;;;;4.53;2.27;;;18.00;93.70;;;;;;6133796;23;20444;-88
2022/05/27 00:09:44;;;;;;;2.83;1.90;;;18.20;93.60;;;;;;6135920;23;20483;-87
2022/05/27 00:12:11;;;;;;;3.43;1.53;;;18.20;93.60;;;;;;6118517;23;20419;-88
2022/05/27 00:14:56;;;;;;;2.67;1.50;;;18.10;93.60;;;;;;6117810;23;20491;-87
2022/05/27 00:17:29;;;;;;;1.90;1.80;;;18.10;93.80;;;;;;6117963;23;20424;-83
2022/05/27 00:20:07;;;;;;;2.83;1.70;;;18.10;93.90;;;;;;6110490;23;20815;-86
2022/05/27 00:22:37;;;;;;;3.43;2.47;;;18.10;93.90;;;;;;6121372;23;20408;-86
2022/05/27 00:25:05;;;;;;;3.70;1.90;;;18.10;93.90;;;;;;6143643;23;20491;-86
2022/05/27 00:27:31;;;;;;;2.20;2.00;;;18.10;93.90;;;;;;6143494;23;20451;-86
2022/05/27 00:29:58;;;;;;;8.47;2.67;;;18.10;94.00;;;;;;6107898;23;20420;-87
2022/05/27 00:32:28;;;;;;;2.90;2.50;;;18.00;94.00;;;;;;6096370;23;20482;-85
2022/05/27 00:35:03;;;;;;;3.87;2.20;;;18.00;94.20;;;;;;6124735;23;20438;-87
2022/05/27 00:37:53;;;;;;;3.37;2.63;;;18.00;94.30;;;;;;6125581;23;20415;-88
2022/05/27 00:40:22;;;;;;;3.77;2.97;;;18.00;94.50;;;;;;6119766;23;20439;-87
2022/05/27 00:42:50;;;;;;;2.87;2.57;;;17.90;94.50;;;;;;6119951;23;20415;-88
2022/05/27 00:45:24;;;;;;;5.07;2.90;;;18.00;94.60;;;;;;6117106;23;20403;-87
2022/05/27 00:47:55;;;;;;;3.53;2.90;;;18.00;94.50;;;;;;6114036;23;20412;-88
2022/05/27 00:50:27;;;;;;;4.90;3.03;;;18.00;94.50;;;;;;6108833;23;20824;-88
2022/05/27 00:52:55;;;;;;;4.33;2.90;;;18.00;94.50;;;;;;6123140;23;20483;-88
2022/05/27 00:55:26;;;;;;;4.13;2.27;;;18.00;94.60;;;;;;6124474;23;20643;-85
2022/05/27 00:58:02;;;;;;;4.90;3.00;;;17.90;94.60;;;;;;6115978;23;20443;-87
2022/05/27 01:00:29;;;;;;;6.90;3.77;;;18.00;94.60;;;;;;6117015;23;20379;-85
2022/05/27 01:02:56;;;;;;;4.43;2.80;;;18.00;94.60;;;;;;6092144;23;20408;-85
2022/05/27 01:05:29;;;;;;;4.13;3.50;;;18.00;94.60;;;;;;6093845;23;20486;-86
2022/05/27 01:08:00;;;;;;;4.77;3.40;;;17.90;94.70;;;;;;6096256;23;20424;-87
2022/05/27 01:10:30;;;;;;;5.30;3.30;;;17.90;94.70;;;;;;6123452;23;21046;-85
2022/05/27 01:13:02;;;;;;;7.17;3.60;;;17.80;94.70;;;;;;6095487;23;20435;-86
2022/05/27 01:15:53;;;;;;;4.53;2.47;;;17.80;94.80;;;;;;6119054;23;20404;-86
2022/05/27 01:22:31;;;;;;;5.23;3.03;;;17.70;95.00;;;;;;6120906;23;20411;-87
2022/05/27 01:25:32;;;;;;;4.27;2.90;;;17.70;95.00;;;;;;6101943;23;20411;-85
2022/05/27 01:28:17;;;;;;;4.13;2.83;;;17.70;95.20;;;;;;6123399;23;20503;-86
2022/05/27 01:30:49;;;;;;;5.57;2.57;;;17.60;95.30;;;;;;6124219;23;20400;-86
2022/05/27 01:33:20;;;;;;;4.53;3.00;;;17.70;95.30;;;;;;6122351;23;20447;-85
2022/05/27 01:36:05;;;;;;;5.53;2.50;;;17.70;95.40;;;;;;6118990;23;20439;-84
2022/05/27 01:38:39;;;;;;;4.80;2.80;;;17.70;95.30;;;;;;6120892;23;21135;-87
2022/05/27 01:41:18;;;;;;;5.07;2.80;;;17.70;95.40;;;;;;6134839;23;20395;-85
2022/05/27 01:43:53;;;;;;;3.30;3.00;;;17.60;95.40;;;;;;6131015;23;20907;-85
2022/05/27 01:46:28;;;;;;;4.83;3.07;;;17.60;95.60;;;;;;6100066;23;20569;-85
2022/05/27 01:49:35;;;;;;;2.57;2.37;;;17.60;95.60;;;;;;6100443;23;20697;-86
2022/05/27 01:52:34;;;;;;;3.40;2.87;;;17.70;95.60;;;;;;6085324;23;20823;-88
2022/05/27 01:55:10;;;;;;;5.93;3.30;;;17.60;95.60;;;;;;6131376;23;20407;-84
2022/05/27 01:57:49;;;;;;;6.47;3.00;;;17.60;95.70;;;;;;6133528;23;20526;-88
2022/05/27 02:00:25;;;;;;;3.37;3.07;;;17.50;95.70;;;;;;6138949;23;20415;-88
2022/05/27 02:03:01;;;;;;;3.73;3.00;;;17.50;95.70;;;;;;6139862;23;20498;-87
2022/05/27 02:05:33;;;;;;;3.80;2.77;;;17.50;95.80;;;;;;6117981;23;20411;-87
2022/05/27 02:08:09;;;;;;;4.03;2.90;;;17.50;95.80;;;;;;6143640;23;20440;-87
2022/05/27 02:10:43;;;;;;;2.90;2.70;;;17.50;95.90;;;;;;6147609;23;20452;-88
2022/05/27 02:13:35;;;;;;;4.03;2.40;;;17.40;96.30;;;;;;6118270;23;20431;-88
2022/05/27 02:16:03;;;;;;;5.27;3.00;;;17.40;96.00;;;;;;6115877;23;20414;-87
2022/05/27 02:18:46;;;;;;;2.90;2.30;;;17.40;96.00;;;;;;6110218;23;20456;-87
2022/05/27 02:21:30;;;;;;;2.60;2.40;;;17.40;96.10;;;;;;6132646;23;20411;-83
2022/05/27 02:24:03;;;;;;;2.63;2.43;;;17.40;96.00;;;;;;6132015;23;20471;-86
2022/05/27 02:26:33;;;;;;;2.30;1.97;;;17.30;96.10;;;;;;6103639;23;20408;-85
2022/05/27 02:29:21;;;;;;;4.23;2.10;;;17.40;96.20;;;;;;6104707;23;20443;-85
2022/05/27 02:31:52;;;;;;;3.37;2.40;;;17.40;96.20;;;;;;6104107;23;20450;-87
2022/05/27 02:37:24;;;;;;;2.70;2.03;;;17.30;96.50;;;;;;6134974;23;20969;-87
2022/05/27 02:39:53;;;;;;;5.10;1.93;;;17.30;96.60;;;;;;6128655;23;20503;-86
2022/05/27 02:42:32;;;;;;;3.70;2.40;;;17.30;96.70;;;;;;6128021;23;20408;-88
2022/05/27 02:45:50;;;;;;;4.17;2.10;;;17.30;96.80;;;;;;6129056;23;20440;-87
2022/05/27 02:48:29;;;;;;;3.77;1.90;;;17.30;96.80;;;;;;6102962;23;20427;-87
2022/05/27 02:51:09;;;;;;;3.33;2.13;;;17.30;96.90;;;;;;6126470;23;20415;-86
2022/05/27 02:53:47;;;;;;;3.07;2.40;;;17.20;97.20;;;;;;6102838;23;20459;-86
2022/05/27 02:56:25;;;;;;;4.30;2.70;;;17.20;97.50;;;;;;6101998;23;20418;-87
2022/05/27 02:58:54;;;;;;;3.73;2.37;;;17.20;97.70;;;;;;6102803;23;20415;-84
2022/05/27 03:01:22;;;;;;;4.17;2.23;;;17.10;97.70;;;;;;6128789;23;20400;-86
2022/05/27 03:03:50;;;;;;;3.30;2.50;;;17.10;98.00;;;;;;6109815;23;20471;-88
2022/05/27 03:06:59;;;;;;;3.90;2.70;;;17.00;98.40;;;;;;6117955;23;20460;-87
2022/05/27 03:09:40;;;;;;;3.40;2.00;;;16.90;98.60;;;;;;6137614;23;20412;-88
2022/05/27 03:12:28;;;;;;;2.60;2.10;;;17.00;98.80;;;;;;6130287;23;20472;-87
2022/05/27 03:14:59;;;;;;;3.33;1.93;;;17.00;99.10;;;;;;6103565;23;20443;-87
2022/05/27 03:17:43;;;;;;;6.47;2.10;;;17.00;99.30;;;;;;6127967;23;20511;-86
2022/05/27 03:20:16;;;;;;;3.20;2.90;;;17.00;99.20;;;;;;6122821;23;20422;-88
2022/05/27 03:23:07;;;;;;;2.77;1.90;;;16.90;99.30;;;;;;6125580;23;20397;-87
2022/05/27 03:25:43;;;;;;;3.33;2.00;;;16.90;99.60;;;;;;6138579;23;20491;-86
2022/05/27 03:28:18;;;;;;;3.20;2.30;;;16.70;99.90;;;;;;6128727;23;20436;-86
2022/05/27 03:31:00;;;;;;;2.40;1.87;;;16.70;99.90;;;;;;6128869;23;20506;-86
2022/05/27 03:34:17;;;;;;;4.03;2.37;;;16.60;99.90;;;;;;6126495;23;20471;-86
2022/05/27 03:37:03;;;;;;;5.00;1.77;;;16.70;99.90;;;;;;6130690;23;20491;-84
2022/05/27 03:39:42;;;;;;;1.73;1.60;;;16.60;99.90;;;;;;6133348;23;20407;-85
2022/05/27 03:42:11;;;;;;;5.53;2.17;;;16.50;99.90;;;;;;6136387;23;20560;-85
2022/05/27 03:44:48;;;;;;;2.73;2.00;;;16.50;99.90;;;;;;6107955;23;20550;-84
2022/05/27 03:47:14;;;;;;;3.27;2.00;;;16.60;99.90;;;;;;6127255;23;20449;-85
2022/05/27 03:49:41;;;;;;;3.70;2.23;;;16.60;99.90;;;;;;6103561;23;20426;-85
2022/05/27 03:52:18;;;;;;;2.50;2.30;;;16.60;99.90;;;;;;6102197;23;20422;-86
2022/05/27 03:54:45;;;;;;;5.10;2.23;;;16.50;99.90;;;;;;6103208;23;20954;-87
2022/05/27 03:57:12;;;;;;;4.57;2.80;;;16.40;99.90;;;;;;6129592;23;20497;-86
2022/05/27 03:59:39;;;;;;;3.90;2.40;;;16.40;99.90;;;;;;6101998;23;20506;-87
2022/05/27 04:02:12;;;;;;;2.60;2.40;;;16.40;99.90;;;;;;6104200;23;20412;-85
2022/05/27 04:04:38;;;;;;;2.60;2.07;;;16.40;99.90;;;;;;6103813;23;20443;-87
2022/05/27 04:07:06;;;;;;;2.73;2.47;;;16.30;99.90;;;;;;6127967;23;20427;-86
2022/05/27 04:09:33;;;;;;;4.33;2.57;;;16.30;99.90;;;;;;6107343;23;20408;-87
2022/05/27 04:12:00;;;;;;;2.93;2.53;;;16.30;99.90;;;;;;6105865;23;20418;-86
2022/05/27 04:14:31;;;;;;;2.40;2.20;;;16.20;99.90;;;;;;6130655;23;20466;-86
2022/05/27 04:19:45;;;;;;;2.90;2.67;;;16.10;99.90;;;;;;6131965;23;20419;-85
2022/05/27 04:22:12;;;;;;;3.13;2.80;;;16.20;99.90;;;;;;6140158;23;20455;-87
2022/05/27 04:24:38;;;;;;;3.10;2.67;;;16.20;99.90;;;;;;6113392;23;20413;-87
2022/05/27 04:27:14;;;;;;;3.00;2.70;;;16.20;99.90;;;;;;6136907;23;20875;-88
2022/05/27 04:29:45;;;;;;;3.27;2.37;;;16.20;99.90;;;;;;6110837;23;20454;-86
2022/05/27 04:32:14;;;;;;;2.10;2.00;;;16.10;99.90;;;;;;6110581;23;20458;-88
2022/05/27 04:34:41;;;;;;;3.37;2.50;;;16.20;99.90;;;;;;6136229;23;20447;-84
2022/05/27 04:37:11;;;;;;;3.27;2.93;;;16.10;99.90;;;;;;6135742;23;20491;-87
2022/05/27 04:39:39;;;;;;;3.67;2.20;;;16.20;99.90;;;;;;6115423;23;20490;-85
2022/05/27 04:42:06;;;;;;;2.40;2.20;;;16.20;99.90;;;;;;6112145;23;20471;-86
2022/05/27 04:44:33;;;;;;;2.93;2.30;;;16.10;99.90;;;;;;6137099;23;20474;-87
2022/05/27 04:47:01;;;;;;;2.70;2.50;;;16.10;99.90;;;;;;6110679;23;20441;-85
2022/05/27 04:52:13;;;;;;;3.10;2.20;;;16.10;99.90;;;;;;6138731;23;20382;-86
2022/05/27 04:54:40;;;;;;;3.70;2.47;;;16.10;99.90;;;;;;6140819;23;20531;-87
2022/05/27 04:57:11;;;;;;;4.00;2.40;;;16.10;99.90;;;;;;6112484;23;20768;-87
2022/05/27 04:59:39;;;;;;;5.07;4.30;;;16.10;99.90;;;;;;6134164;23;20416;-86
2022/05/27 05:02:07;;;;;;;2.80;2.60;;;16.10;99.90;;;;;;6134394;23;20747;-86
2022/05/27 05:04:33;;;;;;;4.63;2.70;;;16.10;99.90;;;;;;6133925;23;20443;-88
2022/05/27 05:07:07;;;;;;;3.40;2.30;;;16.10;99.90;;;;;;6138517;23;20660;-86
2022/05/27 05:09:40;;;;;;;3.20;2.60;;;16.10;99.90;;;;;;6140227;23;20420;-87
2022/05/27 05:12:08;;;;;;;4.10;2.47;;;16.10;99.90;;;;;;6117361;23;20418;-86
2022/05/27 05:14:35;;;;;;;2.30;2.10;;;16.10;99.90;;;;;;6139108;23;20443;-85
2022/05/27 05:17:02;;;;;;;2.60;2.40;;;16.10;99.90;;;;;;6138928;23;20470;-85
2022/05/27 05:19:29;;;;;;;4.33;2.90;;;16.10;99.90;;;;;;6138431;23;20396;-88
2022/05/27 05:21:56;;;;;;;3.20;3.00;;;16.10;99.90;;;;;;6137758;23;20396;-87
2022/05/27 05:24:32;;;;;;;2.30;2.10;;;16.10;99.90;;;;;;6136934;23;20415;-87
2022/05/27 05:26:59;;;;;;;4.60;3.00;;;16.10;99.90;;;;;;6133784;23;20431;-86
2022/05/27 05:29:31;;;;;;;2.57;2.37;;;16.10;99.90;;;;;;6133739;23;20451;-86
2022/05/27 05:31:58;;;;;;;2.67;2.47;;;16.10;99.90;;;;;;6104427;23;20601;-87
2022/05/27 05:34:25;;;;;;;2.57;2.37;;;16.10;99.90;;;;;;6130495;23;20479;-86
2022/05/27 05:36:59;;;;;;;3.60;3.30;;;16.00;99.90;;;;;;6125296;23;20427;-85
2022/05/27 05:39:38;;;;;;;4.10;3.63;;;16.00;99.90;;;;;;6104129;23;20739;-85
2022/05/27 05:42:06;;;;;;;4.00;3.70;;;16.10;99.90;;;;;;6128272;23;20455;-84
2022/05/27 05:44:33;;;;;;;3.70;3.40;;;16.10;99.90;;;;;;6128403;23;20441;-88
2022/05/27 05:47:02;;;;;;;3.67;3.37;;;16.10;99.90;;;;;;6126935;23;20547;-82
2022/05/27 05:49:29;;;;;;;3.63;3.30;;;16.10;99.90;;;;;;6128431;23;20816;-86
2022/05/27 05:51:59;;;;;;;3.80;3.50;;;16.10;99.90;;;;;;6102472;23;20369;-86
2022/05/27 05:54:28;;;;;;;4.77;3.53;;;16.10;99.90;;;;;;6127742;23;20664;-85
2022/05/27 05:57:00;;;;;;;3.50;3.23;;;16.20;99.90;;;;;;6101532;23;20626;-87
2022/05/27 05:59:38;;;;;;;4.10;3.80;;;16.20;99.90;;;;;;6126394;23;20420;-87
2022/05/27 06:02:07;;;;;;;4.00;3.60;;;16.10;99.90;;;;;;6108784;23;20402;-86
2022/05/27 06:04:34;;;;;;;3.43;3.13;;;16.20;99.90;;;;;;6080736;23;21228;-87
2022/05/27 06:07:03;;;;;;;3.93;3.57;;;16.10;99.90;;;;;;6114305;23;20475;-85
2022/05/27 06:09:33;;;;;;;4.93;4.53;;;16.10;99.90;;;;;;6133406;23;20422;-86
2022/05/27 06:12:02;;;;;;;4.60;4.20;;;16.00;99.90;;;;;;6103462;23;20416;-86
2022/05/27 06:14:29;;;;;;;4.10;3.80;;;16.10;99.90;;;;;;6128611;23;20453;-86
2022/05/27 06:16:56;;;;;;;4.30;3.90;;;16.10;99.90;;;;;;6127781;23;20471;-86
2022/05/27 06:19:22;;;;;;;4.07;3.67;;;16.10;99.90;;;;;;6107550;23;20412;-86
2022/05/27 06:21:49;;;;;;;2.17;1.87;;;16.10;99.90;;;;;;6110357;23;20412;-88
2022/05/27 06:24:16;;;;;;;4.13;3.80;;;16.40;99.90;;;;;;6129718;23;20550;-87
2022/05/27 06:26:47;;;;;;;2.40;2.20;;;16.30;99.90;;;;;;6102420;23;20475;-86
2022/05/27 06:34:45;;;;;;;3.37;3.00;;;15.90;99.90;;;;;;6128074;23;20518;-86
2022/05/27 06:37:21;;;;;;;4.27;3.00;;;15.90;99.90;;;;;;6100777;23;20539;-87
2022/05/27 06:39:49;;;;;;;4.10;3.63;;;15.90;99.90;;;;;;6104073;23;20412;-86
2022/05/27 06:42:16;;;;;;;3.33;3.03;;;15.90;99.90;;;;;;6129387;23;20955;-86
2022/05/27 06:45:09;;;;;;;3.20;3.00;;;16.00;99.90;;;;;;6135708;23;20404;-87
2022/05/27 06:47:41;;;;;;;3.57;3.37;;;16.10;99.90;;;;;;6107445;23;20478;-85
2022/05/27 06:50:10;;;;;;;3.90;3.50;;;16.10;99.90;;;;;;6107818;23;20446;-85
2022/05/27 06:52:37;;;;;;;3.67;3.03;;;16.20;99.90;;;;;;6111779;23;20424;-85
2022/05/27 06:55:04;;;;;;;2.60;2.40;;;16.30;99.90;;;;;;6135649;23;20456;-85
2022/05/27 06:57:31;;;;;;;4.03;2.70;;;16.50;99.90;;;;;;6138676;23;20610;-85
2022/05/27 07:00:07;;;;;;;2.90;2.60;;;16.40;99.90;;;;;;6137471;23;20415;-86
2022/05/27 07:02:34;;;;;;;2.40;1.70;;;16.20;99.90;;;;;;6127502;23;20402;-86
2022/05/27 07:05:08;;;;;;;4.23;3.83;;;16.00;99.90;;;;;;6107398;23;20424;-85
2022/05/27 07:07:35;;;;;;;3.70;2.67;;;16.00;99.90;;;;;;6106569;23;20538;-87
2022/05/27 07:10:03;;;;;;;2.30;2.00;;;16.20;99.90;;;;;;6127852;23;20404;-88
2022/05/27 07:12:29;;;;;;;2.40;2.10;;;16.30;99.90;;;;;;6129507;23;20470;-87
2022/05/27 07:15:09;;;;;;;2.43;2.10;;;16.30;99.90;;;;;;6100496;23;20744;-85
2022/05/27 07:17:36;;;;;;;4.23;1.97;;;16.20;99.90;;;;;;6101986;23;20428;-86
2022/05/27 07:20:06;;;;;;;3.20;2.50;;;16.10;99.90;;;;;;6126955;23;20484;-88
2022/05/27 07:22:33;;;;;;;2.73;2.53;;;16.00;99.90;;;;;;6131573;23;21155;-86
2022/05/27 07:25:00;;;;;;;3.30;2.00;;;16.00;99.90;;;;;;6105843;23;20522;-87
2022/05/27 07:27:30;;;;;;;2.97;1.83;;;16.00;99.90;;;;;;6108102;23;20432;-87
2022/05/27 07:30:03;;;;;;;2.17;1.97;;;15.90;99.90;;;;;;6115445;23;20421;-86
2022/05/27 07:32:34;;;;;;;2.47;1.60;;;15.80;99.90;;;;;;6142682;23;20423;-87
2022/05/27 07:35:02;;;;;;;2.67;1.77;;;15.80;99.90;;;;;;6143723;23;20435;-87
2022/05/27 07:37:29;;;;;;;4.90;2.00;;;15.80;99.90;;;;;;6118483;23;20423;-88
2022/05/27 07:39:56;;;;;;;1.90;1.47;;;15.80;99.90;;;;;;6144822;23;20458;-85
2022/05/27 07:42:24;;;;;;;4.07;1.80;;;15.90;99.90;;;;;;6118706;23;20423;-86
2022/05/27 07:44:51;;;;;;;2.67;1.70;;;15.80;99.90;;;;;;6117965;23;20412;-87
2022/05/27 07:47:19;;;;;;;3.20;1.63;;;15.80;99.90;;;;;;6142195;23;20467;-85
2022/05/27 07:49:46;;;;;;;16.03;2.87;;;15.90;99.90;;;;;;6102409;23;20978;-84
2022/05/27 07:52:13;;;;;;;2.60;1.90;;;15.90;99.90;;;;;;6102211;23;20430;-86
2022/05/27 07:54:40;;;;;;;6.27;2.77;;;15.90;99.90;;;;;;6128500;23;20475;-87
2022/05/27 07:57:24;;;;;;;2.33;2.13;;;15.90;99.90;;;;;;6129254;23;20432;-84
2022/05/27 07:59:54;;;;;;;3.60;2.53;;;15.90;99.90;;;;;;6105322;23;20406;-86
2022/05/27 08:02:24;;;;;;;5.20;2.23;;;15.90;99.90;;;;;;6132440;23;20445;-86
2022/05/27 08:04:54;;;;;;;3.57;2.10;;;16.00;99.90;;;;;;6110219;23;20416;-85
2022/05/27 08:07:22;;;;;;;3.37;2.13;;;16.10;99.90;;;;;;6105741;23;20435;-87
2022/05/27 08:09:49;;;;;;;6.37;2.33;;;16.10;99.90;;;;;;6131999;23;20440;-86
2022/05/27 08:12:15;;;;;;;5.90;3.13;;;16.20;99.90;;;;;;6129737;23;21056;-87
2022/05/27 08:14:42;;;;;;;3.97;2.00;;;16.30;99.90;;;;;;6131853;23;20546;-85
2022/05/27 08:17:10;;;;;;;3.30;2.07;;;16.30;99.90;;;;;;6130184;23;20511;-88
2022/05/27 08:19:37;;;;;;;4.97;2.30;;;16.50;99.90;;;;;;6104653;23;20411;-84
2022/05/27 08:22:04;;;;;;;3.60;2.00;;;16.60;99.90;;;;;;6131021;23;20447;-86
2022/05/27 08:24:31;;;;;;;5.80;1.77;;;16.70;99.90;;;;;;6106287;23;20487;-85
2022/05/27 08:26:58;;;;;;;4.73;2.60;;;16.90;99.90;;;;;;6130474;23;20432;-87
2022/05/27 08:29:28;;;;;;;2.53;1.80;;;17.00;99.90;;;;;;6137961;23;20403;-87
2022/05/27 08:31:55;;;;;;;3.60;1.97;;;17.00;99.90;;;;;;6134617;23;20446;-89
2022/05/27 08:39:53;;;;;;;5.70;3.63;;;17.10;99.90;;;;;;6128911;23;20418;-87
2022/05/27 08:42:41;;;;;;;2.37;2.17;;;17.10;99.90;;;;;;6105316;23;20507;-87
2022/05/27 08:45:21;;;;;;;3.83;1.97;;;17.50;99.90;;;;;;6103271;23;20434;-86
2022/05/27 08:47:56;;;;;;;3.40;2.40;;;17.80;99.90;;;;;;6124645;23;20440;-86
2022/05/27 08:50:49;;;;;;;4.90;2.43;;;18.30;99.90;;;;;;6098139;23;20514;-86
2022/05/27 08:53:31;;;;;;;3.63;2.37;;;18.80;99.90;;;;;;6131155;23;20380;-87
2022/05/27 09:01:51;;;;;;;3.80;2.80;;;20.00;98.70;;;;;;6129668;23;20403;-84
2022/05/27 09:04:17;;;;;;;3.07;2.80;;;20.00;97.90;;;;;;6130775;23;20389;-86
2022/05/27 09:07:17;;;;;;;3.27;2.67;;;20.60;97.30;;;;;;6128792;23;20470;-85
2022/05/27 09:09:44;;;;;;;4.47;3.20;;;21.40;95.40;;;;;;6103415;23;20415;-89
2022/05/27 09:12:17;;;;;;;4.07;3.50;;;21.70;94.10;;;;;;6110003;23;20446;-87
2022/05/27 09:15:11;;;;;;;3.47;3.17;;;21.70;93.60;;;;;;6131050;23;20444;-85
2022/05/27 09:17:42;;;;;;;3.30;3.10;;;22.50;92.50;;;;;;6080540;23;20459;-85
2022/05/27 09:20:36;;;;;;;4.00;3.60;;;22.60;90.90;;;;;;6119505;23;20502;-88
2022/05/27 09:23:16;;;;;;;3.83;3.43;;;22.40;91.40;;;;;;6106587;23;20711;-84
2022/05/27 09:26:06;;;;;;;5.50;3.50;;;22.10;92.40;;;;;;6110786;23;20423;-87
2022/05/27 09:28:36;;;;;;;4.47;4.07;;;21.50;91.80;;;;;;6129610;23;20436;-86
2022/05/27 09:31:07;;;;;;;4.20;3.80;;;20.90;92.70;;;;;;6129253;23;20422;-85
2022/05/27 09:33:46;;;;;;;5.07;4.57;;;20.80;94.20;;;;;;6106205;23;20482;-89
2022/05/27 09:36:34;;;;;;;3.63;3.10;;;21.50;93.80;;;;;;6110555;23;20458;-88
2022/05/27 09:39:11;;;;;;;4.43;3.37;;;22.20;92.80;;;;;;6121031;23;20427;-89
2022/05/27 09:42:24;;;;;;;3.30;3.10;;;23.60;91.00;;;;;;6145290;23;20400;-90
2022/05/27 09:44:56;;;;;;;4.43;4.03;;;25.70;82.20;;;;;;6145154;23;20447;-90
2022/05/27 09:47:35;;;;;;;4.50;4.10;;;24.90;77.30;;;;;;6145452;23;20424;-91
2022/05/27 09:50:28;;;;;;;5.10;4.60;;;23.00;82.60;;;;;;6143735;23;20407;-83
2022/05/27 09:52:58;;;;;;;4.77;4.30;;;22.20;86.40;;;;;;6104245;23;20443;-86
2022/05/27 09:55:38;;;;;;;5.10;4.20;;;22.10;86.90;;;;;;6131281;23;20472;-89
2022/05/27 09:58:07;;;;;;;4.70;4.00;;;22.30;87.00;;;;;;6106280;23;20428;-88
2022/05/27 10:00:46;;;;;;;4.63;3.97;;;23.40;81.50;;;;;;6108162;23;20420;-87
2022/05/27 10:03:30;;;;;;;4.17;3.87;;;23.30;77.40;;;;;;6133089;23;20404;-88
2022/05/27 10:06:16;;;;;;;6.50;4.40;;;22.30;81.40;;;;;;6132865;23;20442;-83
2022/05/27 10:08:58;;;;;;;4.97;3.40;;;21.80;82.50;;;;;;6124697;23;20447;-83
2022/05/27 10:11:26;;;;;;;3.80;3.50;;;22.10;82.20;;;;;;6103043;23;20425;-82
2022/05/27 10:14:24;;;;;;;3.30;3.00;;;22.60;78.90;;;;;;6130120;23;20780;-85
2022/05/27 10:17:04;;;;;;;3.40;3.10;;;23.00;77.40;;;;;;6126832;23;20447;-87
2022/05/27 10:19:44;;;;;;;4.80;3.77;;;22.60;74.90;;;;;;6125416;23;20468;-83
2022/05/27 10:22:30;;;;;;;4.00;3.50;;;22.40;77.70;;;;;;6125856;23;20515;-87
2022/05/27 10:25:03;;;;;;;3.20;2.90;;;22.80;78.50;;;;;;6124877;23;20392;-87
2022/05/27 10:27:52;;;;;;;4.80;3.30;;;23.30;75.70;;;;;;6128287;23;20420;-86
2022/05/27 10:30:22;;;;;;;3.43;3.10;;;23.30;73.00;;;;;;6126248;23;20419;-88
2022/05/27 10:32:50;;;;;;;5.30;2.80;;;23.30;71.50;;;;;;6124617;23;20433;-86
2022/05/27 10:35:25;;;;;;;3.43;2.90;;;23.50;72.50;;;;;;6103048;23;20523;-86
2022/05/27 10:38:13;;;;;;;4.23;3.30;;;23.10;72.70;;;;;;6127910;23;20459;-86
2022/05/27 10:40:54;;;;;;;4.10;3.30;;;22.80;71.00;;;;;;6130709;23;20443;-85
2022/05/27 10:44:16;;;;;;;6.13;3.00;;;22.90;71.70;;;;;;6106617;23;20385;-87
2022/05/27 10:47:02;;;;;;;5.03;2.80;;;23.30;70.50;;;;;;6026128;23;20425;-87
2022/05/27 10:50:06;;;;;;;7.40;3.40;;;23.70;70.20;;;;;;6099526;23;20412;-86
2022/05/27 10:52:49;;;;;;;4.93;2.47;;;23.80;67.60;;;;;;6125242;23;20471;-85
2022/05/27 10:55:23;;;;;;;3.27;2.97;;;23.80;66.20;;;;;;6126197;23;20563;-86
2022/05/27 11:04:16;;;;;;;4.87;2.50;;;24.30;65.20;;;;;;6125818;23;20530;-86
2022/05/27 11:06:58;;;;;;;2.97;2.67;;;24.30;62.30;;;;;;6101404;23;20411;-88
2022/05/27 11:09:32;;;;;;;4.60;2.50;;;24.30;60.60;;;;;;6130797;23;20419;-84
2022/05/27 11:15:10;;;;;;;3.40;2.33;;;24.30;60.20;;;;;;6124700;23;20419;-88
2022/05/27 11:15:48;;;;;;;2.93;2.00;;;24.30;59.60;;;;;;6081990;23;20541;-84
2022/05/27 11:18:29;;;;;;;2.23;2.03;;;24.30;60.90;;;;;;6122793;23;20439;-89
2022/05/27 11:21:18;;;;;;;2.97;1.83;;;24.40;61.50;;;;;;6123672;23;20422;-90
2022/05/27 11:23:53;;;;;;;2.63;1.60;;;24.50;60.10;;;;;;6129851;23;20425;-86
2022/05/27 11:26:34;;;;;;;3.57;2.23;;;24.50;57.10;;;;;;6123113;23;20415;-87
2022/05/27 11:29:40;;;;;;;2.83;1.90;;;24.60;57.00;;;;;;6122195;23;20478;-86
2022/05/27 11:32:31;;;;;;;2.57;2.03;;;24.70;56.10;;;;;;6118437;23;20466;-84
2022/05/27 11:35:31;;;;;;;4.40;2.40;;;24.80;55.40;;;;;;6124417;23;20423;-84
2022/05/27 11:38:12;;;;;;;5.57;2.37;;;24.90;57.70;;;;;;6124907;23;20420;-84
2022/05/27 11:40:50;;;;;;;2.70;1.70;;;25.30;57.80;;;;;;6130363;23;20721;-83
2022/05/27 11:43:20;;;;;;;3.90;2.07;;;25.80;57.30;;;;;;6109253;23;20415;-84
2022/05/27 11:46:03;;;;;;;3.97;2.23;;;25.50;56.70;;;;;;6132909;23;20392;-83
2022/05/27 11:49:04;;;;;;;3.83;2.03;;;25.80;56.70;;;;;;6136752;23;20431;-85
2022/05/27 11:51:59;;;;;;;3.00;2.50;;;25.40;57.20;;;;;;6133730;23;20407;-86
2022/05/27 11:54:52;;;;;;;3.77;2.50;;;25.00;58.10;;;;;;6139837;23;20507;-84
2022/05/27 11:57:56;;;;;;;4.77;2.70;;;24.70;58.80;;;;;;6130664;23;20463;-85
2022/05/27 12:00:27;;;;;;;5.57;2.90;;;24.00;59.50;;;;;;6128611;23;20419;-84
2022/05/27 12:03:32;;;;;;;4.80;3.73;;;23.50;62.00;;;;;;6129693;23;20416;-86
2022/05/27 12:06:06;;;;;;;5.10;2.87;;;23.10;63.70;;;;;;6121346;23;20518;-85
2022/05/27 12:08:55;;;;;;;3.23;2.40;;;22.80;65.10;;;;;;6127886;23;20540;-84
2022/05/27 12:11:29;;;;;;;6.00;2.80;;;23.10;65.00;;;;;;6100274;23;20424;-83
2022/05/27 12:14:13;;;;;;;4.30;2.73;;;23.60;63.10;;;;;;6127466;23;20407;-83
2022/05/27 12:16:43;;;;;;;3.40;3.00;;;23.60;61.60;;;;;;6125905;23;20470;-86
2022/05/27 12:19:19;;;;;;;3.57;2.63;;;23.60;59.20;;;;;;6099288;23;20399;-84
2022/05/27 12:22:00;;;;;;;2.77;2.53;;;23.60;59.60;;;;;;6125440;23;20394;-83
2022/05/27 12:24:34;;;;;;;3.67;2.67;;;23.90;61.10;;;;;;6127166;23;20992;-83
2022/05/27 12:27:03;;;;;;;6.40;2.90;;;24.40;59.70;;;;;;6101059;23;20530;-85
2022/05/27 12:29:31;;;;;;;4.57;2.27;;;24.60;59.10;;;;;;6101669;23;20796;-84
2022/05/27 12:31:59;;;;;;;4.50;2.80;;;24.40;59.40;;;;;;6126601;23;20427;-84
2022/05/27 12:34:28;;;;;;;3.70;2.67;;;24.30;60.00;;;;;;6128650;23;20415;-86
2022/05/27 12:37:14;;;;;;;5.80;2.50;;;24.30;58.60;;;;;;6127072;23;20931;-85
2022/05/27 12:39:43;;;;;;;4.87;2.50;;;23.80;58.40;;;;;;6128414;23;20422;-84
2022/05/27 12:42:25;;;;;;;4.30;2.60;;;23.80;58.40;;;;;;6126085;23;20811;-85
2022/05/27 12:44:52;;;;;;;5.07;2.60;;;23.40;57.70;;;;;;6125432;23;20411;-84
2022/05/27 12:47:35;;;;;;;3.73;2.23;;;23.20;58.30;;;;;;6126179;23;20463;-85
2022/05/27 12:50:14;;;;;;;5.07;2.80;;;23.50;58.20;;;;;;6131174;23;20399;-84
2022/05/27 12:53:15;;;;;;;3.53;2.37;;;23.90;56.20;;;;;;6113873;23;20499;-83
2022/05/27 13:01:29;;;;;;;4.30;2.93;;;23.60;54.10;;;;;;6132042;23;20403;-85
2022/05/27 13:04:02;;;;;;;3.73;2.33;;;23.80;53.90;;;;;;6104422;23;20427;-84
2022/05/27 13:06:31;;;;;;;3.70;3.00;;;23.80;54.30;;;;;;6133544;23;20698;-85
2022/05/27 13:09:34;;;;;;;5.97;2.87;;;23.70;54.10;;;;;;6129380;23;20529;-84
2022/05/27 13:12:00;;;;;;;2.47;2.20;;;23.80;53.60;;;;;;6129300;23;20816;-86
2022/05/27 13:14:42;;;;;;;3.93;2.37;;;24.30;53.30;;;;;;6128775;23;20416;-86
2022/05/27 13:17:34;;;;;;;5.47;2.67;;;24.60;51.70;;;;;;6138191;23;20443;-86
2022/05/27 13:20:07;;;;;;;3.57;2.27;;;24.20;52.30;;;;;;6119847;23;20396;-83
2022/05/27 13:22:49;;;;;;;4.93;2.17;;;24.10;51.40;;;;;;6121402;23;20442;-86
2022/05/27 13:25:37;;;;;;;4.57;2.47;;;24.30;50.90;;;;;;6094590;23;20617;-85
2022/05/27 13:28:11;;;;;;;6.30;2.00;;;24.20;49.70;;;;;;6096982;23;20416;-85
2022/05/27 13:30:52;;;;;;;8.53;2.23;;;23.90;49.20;;;;;;6099981;23;20900;-85
2022/05/27 13:33:29;;;;;;;3.00;1.90;;;23.60;50.10;;;;;;6127307;23;20416;-84
2022/05/27 13:35:56;;;;;;;4.57;2.00;;;23.50;50.70;;;;;;6129109;23;21411;-85
2022/05/27 13:38:27;;;;;;;7.67;2.80;;;23.60;50.70;;;;;;6128454;23;20471;-83
2022/05/27 13:40:59;;;;;;;8.17;2.60;;;23.70;50.80;;;;;;6114412;23;20468;-86
2022/05/27 13:43:36;;;;;;;4.77;2.30;;;23.70;51.20;;;;;;6105106;23;20385;-86
2022/05/27 13:46:15;;;;;;;5.23;2.47;;;23.60;51.00;;;;;;6105920;23;20485;-86
2022/05/27 13:49:11;;;;;;;4.80;2.73;;;23.50;50.90;;;;;;6099922;23;20439;-86
2022/05/27 13:51:45;;;;;;;9.83;2.47;;;23.50;51.20;;;;;;6126941;23;20435;-85
2022/05/27 13:54:18;;;;;;;7.30;2.30;;;23.40;51.10;;;;;;6127326;23;20446;-85
2022/05/27 13:56:58;;;;;;;6.00;2.60;;;23.30;51.40;;;;;;6100495;23;20535;-84
2022/05/27 13:59:38;;;;;;;4.43;2.40;;;23.20;50.00;;;;;;6101393;23;20910;-85
2022/05/27 14:02:15;;;;;;;7.40;2.27;;;23.20;49.40;;;;;;6126414;23;20400;-84
2022/05/27 14:04:51;;;;;;;4.17;2.60;;;23.20;48.80;;;;;;6126315;23;20392;-85
2022/05/27 14:07:21;;;;;;;5.90;2.93;;;23.20;48.70;;;;;;6125206;23;20518;-84
2022/05/27 14:09:56;;;;;;;4.17;2.40;;;23.30;48.70;;;;;;6101388;23;20501;-85
2022/05/27 14:12:29;;;;;;;5.90;2.63;;;23.40;47.10;;;;;;6129426;23;20451;-85
2022/05/27 14:14:56;;;;;;;8.20;2.63;;;22.80;48.40;;;;;;6098425;23;20376;-83